Friday, January 18, 2019, 11:45 PM EST
Back to Local

KRUT, Rutland, Rutland-southern Vermont Regional Airport

Location: North Clarendon, VT, United States Lat: 43.533
Local Time: 11:45 PM EST ( 4:45 GMT) Lon: -72.95
Time Zone: US/Eastern Elev: 787 ft

Show me the last for .
Show Coded

Time T Td Feel RH Dir Speed Gust Alt SLP Vis Weather Sky Remarks
2019-01-18 22:56 27 18 22 68 280° 5 - 30.10 30.16 10 OVC048 None
2019-01-18 21:56 28 18 23 65 340° 5 - 30.08 30.15 10 OVC046 6-hr Precip Total (10pm): 0.00"
2019-01-18 20:56 29 17 23 60 270° 6 - 30.07 30.14 10 CLR None
2019-01-18 19:56 30 22 21 71 260° 12 - 30.05 30.11 10 FEW028 OVC042 1-hr Precip Total: Trace
2019-01-18 19:43 30 23 18 74 260° 10 18 30.04 - 10 -SN FEW023 SCT029 OVC040 1-hr Precip Total: Trace
2019-01-18 18:56 31 26 19 81 270° 14 20 30.03 30.10 10 BKN024 OVC034 6-hr Precip Total (7pm): 0.00"
6-hr Min Temp (7pm): 30.9°F
6-hr Max Temp (7pm): 32.0°F
2019-01-18 18:16 30 27 21 86 240° 12 - 30.00 - 10 FEW020 BKN038 OVC045 None
2019-01-18 17:56 31 26 21 81 240° 13 - 30.00 30.07 10 BKN018 OVC045 1-hr Precip Total: Trace
2019-01-18 16:56 31 26 24 81 240° 7 - 29.99 30.04 10 UP OVC016 1-hr Precip Total: Trace
2019-01-18 15:56 31 27 21 85 240° 13 - 29.97 30.03 10 -SN OVC018 1-hr Precip Total: Trace
6-hr Precip Total (4pm): 0.00"
2019-01-18 14:56 31 27 23 85 220° 9 - 29.95 30.01 4 -SN BR OVC022 1-hr Precip Total: Trace
2019-01-18 13:56 31 27 - 85 - Calm - 29.95 30.01 6 UP BR OVC024 1-hr Precip Total: Trace
2019-01-18 13:26 32 27 - 80 - Calm - 29.95 - 3 -SN OVC026 1-hr Precip Total: Trace
2019-01-18 12:56 31 25 - 78 - Calm - 29.95 30.01 1 -SN FEW017 OVC024 1-hr Precip Total: Trace
6-hr Precip Total (1pm): 0.00"
6-hr Min Temp (1pm): 23.0°F
6-hr Max Temp (1pm): 30.9°F
2019-01-18 12:48 30 25 - 80 - Calm - 29.96 - 1 -SN FEW017 OVC026 Variable visibility
1-hr Precip Total: Trace
2019-01-18 11:56 30 23 23 74 140° 7 - 29.98 30.04 8 -SN OVC026 1-hr Precip Total: Trace
2019-01-18 10:56 28 21 19 74 130° 9 - 30.02 30.08 8 -SN BKN028 BKN047 OVC055 1-hr Precip Total: Trace
2019-01-18 09:56 27 21 17 77 120° 10 - 30.04 30.10 4 -SN OVC032 1-hr Precip Total: Trace
6-hr Precip Total (10am): 0.00"
2019-01-18 09:24 25 19 14 79 110° 12 - 30.04 - 7 -SN BKN030 OVC035 1-hr Precip Total: Trace
2019-01-18 08:56 25 19 14 77 110° 13 - 30.04 30.10 7 -SN OVC028 1-hr Precip Total: Trace
2019-01-18 07:56 23 17 11 77 110° 14 - 30.04 30.11 9 -SN OVC028 1-hr Precip Total: Trace
2019-01-18 07:17 23 16 12 73 120° 12 - 30.05 - 7 -SN OVC028 1-hr Precip Total: Trace
2019-01-18 06:56 23 15 12 71 120° 10 - 30.05 30.12 9 -SN OVC030 1-hr Precip Total: Trace
6-hr Precip Total (7am): 0.00"
6-hr Min Temp (7am): 19.9°F
6-hr Max Temp (7am): 23.0°F
2019-01-18 05:56 22 14 10 71 130° 13 - 30.06 30.12 9 -SN OVC032 1-hr Precip Total: Trace
2019-01-18 04:56 21 13 11 70 120° 9 - 30.07 30.14 9 -SN OVC032 1-hr Precip Total: Trace
2019-01-18 03:56 20 11 7 67 120° 13 - 30.09 30.16 9 -SN OVC036 1-hr Precip Total: Trace
6-hr Precip Total (4am): 0.00"
2019-01-18 02:56 21 6 10 51 140° 10 - 30.12 30.18 10 BKN040 BKN065 OVC100 None
2019-01-18 01:56 20 2 8 44 140° 12 - 30.13 30.20 10 BKN050 OVC110 None
2019-01-18 00:56 20 3 9 47 150° 9 - 30.15 30.22 10 SCT085 OVC110 6-hr Min Temp (1am): 12.0°F
6-hr Max Temp (1am): 19.9°F
2019-01-17 23:56 18 3 8 51 150° 8 - 30.17 30.23 10 OVC100 Pressure falling rapidly
24-hr Min Temp (12am): -2.9°F
24-hr Max Temp (12am): 26.1°F

Support USWX by starting your Amazon purchase here.